EDT,Max TemperatureF,Mean TemperatureF,Min TemperatureF,Max Dew PointF,MeanDew PointF,Min DewpointF,Max Humidity, Mean Humidity, Min Humidity, Max Sea Level PressureIn, Mean Sea Level PressureIn, Min Sea Level PressureIn, Max VisibilityMiles, Mean VisibilityMiles, Min VisibilityMiles, Max Wind SpeedMPH, Mean Wind SpeedMPH, Max Gust SpeedMPH,PrecipitationIn, CloudCover, Events, WindDirDegrees
2013-8-1,87,76,64,68,66,61,94,75,43,29.99,29.96,29.93,10,10,7,8,2,,0.00,4,,270
2013-8-2,86,72,59,66,62,59,100,71,40,30.04,30.01,29.98,10,10,5,10,2,,0.00,0,,232
2013-8-3,78,73,68,70,67,64,94,83,69,30.03,30.01,29.99,10,9,4,6,0,,0.00,2,Rain,234
2013-8-4,80,70,59,68,61,54,100,78,39,30.13,30.08,30.03,10,6,0,8,1,,0.00,3,Fog,18
2013-8-5,82,68,55,63,56,50,100,70,34,30.16,30.10,30.02,10,10,5,5,0,,0.00,1,,48
2013-8-6,86,72,59,68,60,55,94,69,35,30.05,30.01,29.97,10,10,7,7,1,,0.00,0,,136
2013-8-7,87,76,64,75,69,63,94,83,58,30.00,29.97,29.94,10,9,2,9,1,16,0.00,2,Rain,212
2013-8-8,86,78,69,73,71,68,100,87,66,30.01,29.97,29.95,10,8,3,16,2,21,0.00,3,Rain,223
2013-8-9,86,78,71,73,72,70,100,88,62,30.06,29.98,29.94,10,7,1,12,3,,0.00,5,Rain,233
2013-8-10,86,78,69,72,69,64,100,80,48,30.13,30.09,30.05,10,7,1,5,0,,0.00,3,Rain,73
2013-8-11,89,78,66,72,69,63,100,83,43,30.14,30.10,30.04,10,6,0,4,0,,0.00,3,Fog,216
2013-8-12,87,78,68,73,70,66,100,83,55,30.10,30.03,29.91,10,6,0,8,1,,0.00,5,Fog,201
2013-8-13,86,75,62,72,66,55,100,76,51,30.03,29.91,29.86,10,9,4,8,4,16,0.00,4,Rain,269
2013-8-14,73,62,51,55,52,46,100,73,38,30.19,30.12,30.04,10,10,10,6,1,,0.00,1,,37
2013-8-15,78,64,50,59,53,48,100,72,36,30.21,30.16,30.10,10,9,1,9,1,,0.00,1,,82
2013-8-16,82,68,53,63,57,50,100,74,34,30.17,30.14,30.11,10,10,7,6,0,,0.00,1,,75
2013-8-17,80,68,57,64,60,55,94,77,48,30.23,30.19,30.16,10,9,5,6,1,,0.00,1,,91
2013-8-18,71,68,64,70,66,63,100,91,83,30.22,30.18,30.14,10,8,1,6,1,,0.00,8,Rain,95
2013-8-19,82,73,64,70,66,63,100,82,51,30.19,30.15,30.10,10,8,0,0,0,,0.00,4,Fog,-1
2013-8-20,87,74,60,72,64,61,100,80,40,30.23,30.17,30.13,10,5,0,6,1,,0.00,3,Fog,91
2013-8-21,89,76,62,72,65,63,100,86,52,30.22,30.17,30.12,10,6,0,12,1,43,0.00,3,Rain,154
2013-8-22,87,74,62,73,67,63,100,87,55,30.18,30.11,30.04,10,7,2,7,1,20,0.00,3,Rain,239
2013-8-23,86,75,64,70,67,63,100,80,48,30.16,30.08,30.04,10,7,2,8,1,,0.00,3,Rain,36
2013-8-24,87,73,59,68,61,55,100,74,33,30.30,30.25,30.16,10,7,0,6,0,,0.00,1,Fog,94
2013-8-25,87,73,59,68,60,54,100,74,31,30.40,30.33,30.27,10,8,0,7,1,,0.00,2,Fog,214
2013-8-26,91,74,57,72,64,55,100,76,38,30.30,30.21,30.10,10,8,3,6,1,,0.00,1,,233
2013-8-27,86,77,68,75,71,64,100,83,62,30.10,30.06,30.00,10,6,3,6,1,,0.00,1,,230
2013-8-28,91,82,73,77,73,72,100,83,52,29.99,29.94,29.87,10,7,2,12,3,21,0.00,4,Rain,237
2013-8-29,89,79,69,73,71,68,100,83,52,30.05,30.01,29.96,10,5,1,5,0,,0.00,4,,324
2013-8-30,91,78,66,72,69,64,100,79,49,30.02,29.97,29.89,10,6,0,9,1,,0.00,3,Fog,231
2013-8-31,87,78,68,73,69,64,100,83,52,29.95,29.88,29.81,10,7,2,12,2,16,0.00,3,Rain,227